sensor_id;sensor_type;location;lat;lon;timestamp;temperature;humidity
12426;DHT22;6277;49.824;9.562;2023-03-24T00:01:04;15.60;65.90
12426;DHT22;6277;49.824;9.562;2023-03-24T00:03:31;15.60;66.00
12426;DHT22;6277;49.824;9.562;2023-03-24T00:06:01;15.60;66.00
12426;DHT22;6277;49.824;9.562;2023-03-24T00:08:29;15.50;66.00
12426;DHT22;6277;49.824;9.562;2023-03-24T00:11:00;15.50;66.00
12426;DHT22;6277;49.824;9.562;2023-03-24T00:13:27;15.50;66.00
12426;DHT22;6277;49.824;9.562;2023-03-24T00:15:53;15.50;66.10
12426;DHT22;6277;49.824;9.562;2023-03-24T00:18:18;15.50;66.10
12426;DHT22;6277;49.824;9.562;2023-03-24T00:20:47;15.50;66.20
12426;DHT22;6277;49.824;9.562;2023-03-24T00:23:13;15.50;66.30
12426;DHT22;6277;49.824;9.562;2023-03-24T00:25:39;15.50;66.30
12426;DHT22;6277;49.824;9.562;2023-03-24T00:28:05;15.40;66.30
12426;DHT22;6277;49.824;9.562;2023-03-24T00:30:32;15.40;66.40
12426;DHT22;6277;49.824;9.562;2023-03-24T00:32:59;15.40;66.40
12426;DHT22;6277;49.824;9.562;2023-03-24T00:35:27;15.40;66.40
12426;DHT22;6277;49.824;9.562;2023-03-24T00:37:53;15.40;66.50
12426;DHT22;6277;49.824;9.562;2023-03-24T00:40:19;15.40;66.50
12426;DHT22;6277;49.824;9.562;2023-03-24T00:42:47;15.30;66.50
12426;DHT22;6277;49.824;9.562;2023-03-24T00:45:17;15.30;66.60
12426;DHT22;6277;49.824;9.562;2023-03-24T00:47:44;15.30;66.70
12426;DHT22;6277;49.824;9.562;2023-03-24T00:50:13;15.30;66.70
12426;DHT22;6277;49.824;9.562;2023-03-24T00:52:40;15.30;66.80
12426;DHT22;6277;49.824;9.562;2023-03-24T00:55:09;15.20;66.70
12426;DHT22;6277;49.824;9.562;2023-03-24T00:57:38;15.20;66.80
12426;DHT22;6277;49.824;9.562;2023-03-24T01:00:07;15.20;66.80
12426;DHT22;6277;49.824;9.562;2023-03-24T01:02:43;15.20;67.00
12426;DHT22;6277;49.824;9.562;2023-03-24T01:05:11;15.20;67.00
12426;DHT22;6277;49.824;9.562;2023-03-24T01:07:37;15.20;67.10
12426;DHT22;6277;49.824;9.562;2023-03-24T01:10:13;15.10;67.10
12426;DHT22;6277;49.824;9.562;2023-03-24T01:12:39;15.10;67.40
12426;DHT22;6277;49.824;9.562;2023-03-24T01:15:27;15.20;67.20
12426;DHT22;6277;49.824;9.562;2023-03-24T01:17:54;15.20;67.40
12426;DHT22;6277;49.824;9.562;2023-03-24T01:20:21;15.20;67.30
12426;DHT22;6277;49.824;9.562;2023-03-24T01:22:48;15.20;67.20
12426;DHT22;6277;49.824;9.562;2023-03-24T01:25:17;15.20;67.20
12426;DHT22;6277;49.824;9.562;2023-03-24T01:27:43;15.10;67.10
12426;DHT22;6277;49.824;9.562;2023-03-24T01:30:12;15.10;67.10
12426;DHT22;6277;49.824;9.562;2023-03-24T01:32:38;15.10;67.10
12426;DHT22;6277;49.824;9.562;2023-03-24T01:35:03;15.10;67.00
12426;DHT22;6277;49.824;9.562;2023-03-24T01:37:29;15.00;66.90
12426;DHT22;6277;49.824;9.562;2023-03-24T01:39:55;15.00;66.80
12426;DHT22;6277;49.824;9.562;2023-03-24T01:42:23;15.00;66.80
12426;DHT22;6277;49.824;9.562;2023-03-24T01:44:53;14.90;66.80
12426;DHT22;6277;49.824;9.562;2023-03-24T01:47:18;14.90;66.90
12426;DHT22;6277;49.824;9.562;2023-03-24T01:52:39;14.80;67.00
12426;DHT22;6277;49.824;9.562;2023-03-24T01:55:11;14.70;67.20
12426;DHT22;6277;49.824;9.562;2023-03-24T01:57:42;14.70;67.10
12426;DHT22;6277;49.824;9.562;2023-03-24T02:00:11;14.70;67.00
12426;DHT22;6277;49.824;9.562;2023-03-24T02:02:39;14.60;67.10
12426;DHT22;6277;49.824;9.562;2023-03-24T02:05:08;14.60;67.20
12426;DHT22;6277;49.824;9.562;2023-03-24T02:07:56;14.50;67.30
12426;DHT22;6277;49.824;9.562;2023-03-24T02:10:23;14.50;67.70
12426;DHT22;6277;49.824;9.562;2023-03-24T02:12:49;14.50;67.50
12426;DHT22;6277;49.824;9.562;2023-03-24T02:15:16;14.50;67.50
12426;DHT22;6277;49.824;9.562;2023-03-24T02:20:56;14.50;67.60
12426;DHT22;6277;49.824;9.562;2023-03-24T02:26:46;14.50;68.00
12426;DHT22;6277;49.824;9.562;2023-03-24T02:29:32;14.50;67.60
12426;DHT22;6277;49.824;9.562;2023-03-24T02:35:25;14.50;68.00
12426;DHT22;6277;49.824;9.562;2023-03-24T02:40:42;14.40;68.00
12426;DHT22;6277;49.824;9.562;2023-03-24T02:43:41;14.40;67.90
12426;DHT22;6277;49.824;9.562;2023-03-24T02:54:32;14.40;68.00
12426;DHT22;6277;49.824;9.562;2023-03-24T02:57:21;14.50;68.20
12426;DHT22;6277;49.824;9.562;2023-03-24T02:59:59;14.50;68.30
12426;DHT22;6277;49.824;9.562;2023-03-24T03:02:32;14.50;68.10
12426;DHT22;6277;49.824;9.562;2023-03-24T03:05:06;14.60;68.10
12426;DHT22;6277;49.824;9.562;2023-03-24T03:07:33;14.60;68.20
12426;DHT22;6277;49.824;9.562;2023-03-24T03:10:24;14.60;68.00
12426;DHT22;6277;49.824;9.562;2023-03-24T03:12:54;14.70;68.40
12426;DHT22;6277;49.824;9.562;2023-03-24T03:15:24;14.70;68.10
12426;DHT22;6277;49.824;9.562;2023-03-24T03:18:03;14.70;68.10
12426;DHT22;6277;49.824;9.562;2023-03-24T03:20:33;14.70;68.10
12426;DHT22;6277;49.824;9.562;2023-03-24T03:23:11;14.80;68.00
12426;DHT22;6277;49.824;9.562;2023-03-24T03:25:43;14.80;68.10
12426;DHT22;6277;49.824;9.562;2023-03-24T03:28:13;14.80;68.00
12426;DHT22;6277;49.824;9.562;2023-03-24T03:31:03;14.80;67.90
12426;DHT22;6277;49.824;9.562;2023-03-24T03:33:37;14.80;68.00
12426;DHT22;6277;49.824;9.562;2023-03-24T03:36:25;14.90;67.90
12426;DHT22;6277;49.824;9.562;2023-03-24T03:39:13;14.90;68.00
12426;DHT22;6277;49.824;9.562;2023-03-24T03:41:41;14.90;67.90
12426;DHT22;6277;49.824;9.562;2023-03-24T03:44:07;14.90;67.70
12426;DHT22;6277;49.824;9.562;2023-03-24T03:46:35;14.90;67.70
12426;DHT22;6277;49.824;9.562;2023-03-24T03:49:01;14.90;67.80
12426;DHT22;6277;49.824;9.562;2023-03-24T03:51:27;14.90;67.80
12426;DHT22;6277;49.824;9.562;2023-03-24T03:53:58;14.80;67.80
12426;DHT22;6277;49.824;9.562;2023-03-24T03:56:28;14.80;67.90
12426;DHT22;6277;49.824;9.562;2023-03-24T03:58:54;14.80;67.80
12426;DHT22;6277;49.824;9.562;2023-03-24T04:01:23;14.80;67.90
12426;DHT22;6277;49.824;9.562;2023-03-24T04:04:05;14.80;68.00
12426;DHT22;6277;49.824;9.562;2023-03-24T04:06:50;14.80;68.00
12426;DHT22;6277;49.824;9.562;2023-03-24T04:17:33;14.90;68.10
12426;DHT22;6277;49.824;9.562;2023-03-24T04:20:09;14.90;68.20
12426;DHT22;6277;49.824;9.562;2023-03-24T04:23:07;14.90;68.20
12426;DHT22;6277;49.824;9.562;2023-03-24T04:25:39;14.90;68.00
12426;DHT22;6277;49.824;9.562;2023-03-24T04:30:45;15.00;68.20
12426;DHT22;6277;49.824;9.562;2023-03-24T04:34:00;15.00;68.20
12426;DHT22;6277;49.824;9.562;2023-03-24T04:36:13;15.00;68.20
12426;DHT22;6277;49.824;9.562;2023-03-24T04:38:49;15.10;68.30
12426;DHT22;6277;49.824;9.562;2023-03-24T04:41:19;15.10;68.30
12426;DHT22;6277;49.824;9.562;2023-03-24T04:43:47;15.20;68.20
12426;DHT22;6277;49.824;9.562;2023-03-24T04:46:14;15.20;68.20
12426;DHT22;6277;49.824;9.562;2023-03-24T04:48:44;15.20;68.20
12426;DHT22;6277;49.824;9.562;2023-03-24T04:51:13;15.20;68.10
12426;DHT22;6277;49.824;9.562;2023-03-24T04:53:39;15.30;68.20
12426;DHT22;6277;49.824;9.562;2023-03-24T04:56:24;15.30;68.20
12426;DHT22;6277;49.824;9.562;2023-03-24T04:58:51;15.40;68.30
12426;DHT22;6277;49.824;9.562;2023-03-24T05:01:17;15.40;68.20
12426;DHT22;6277;49.824;9.562;2023-03-24T05:03:46;15.40;68.20
12426;DHT22;6277;49.824;9.562;2023-03-24T05:06:12;15.40;68.30
12426;DHT22;6277;49.824;9.562;2023-03-24T05:08:37;15.40;68.30
12426;DHT22;6277;49.824;9.562;2023-03-24T05:11:04;15.40;68.30
12426;DHT22;6277;49.824;9.562;2023-03-24T05:13:29;15.40;68.30
12426;DHT22;6277;49.824;9.562;2023-03-24T05:15:55;15.40;68.40
12426;DHT22;6277;49.824;9.562;2023-03-24T05:18:21;15.40;68.40
12426;DHT22;6277;49.824;9.562;2023-03-24T05:20:47;15.50;68.40
12426;DHT22;6277;49.824;9.562;2023-03-24T05:23:12;15.40;68.40
12426;DHT22;6277;49.824;9.562;2023-03-24T05:25:38;15.40;68.50
12426;DHT22;6277;49.824;9.562;2023-03-24T05:28:03;15.30;68.50
12426;DHT22;6277;49.824;9.562;2023-03-24T05:30:29;15.30;68.60
12426;DHT22;6277;49.824;9.562;2023-03-24T05:32:55;15.30;68.70
12426;DHT22;6277;49.824;9.562;2023-03-24T05:35:21;15.20;68.70
12426;DHT22;6277;49.824;9.562;2023-03-24T05:37:47;15.20;68.80
12426;DHT22;6277;49.824;9.562;2023-03-24T05:40:13;15.10;68.90
12426;DHT22;6277;49.824;9.562;2023-03-24T05:42:40;15.20;69.10
12426;DHT22;6277;49.824;9.562;2023-03-24T05:45:06;15.10;69.10
12426;DHT22;6277;49.824;9.562;2023-03-24T05:47:31;15.10;69.20
12426;DHT22;6277;49.824;9.562;2023-03-24T05:49:57;15.10;69.30
12426;DHT22;6277;49.824;9.562;2023-03-24T05:52:22;15.10;69.50
12426;DHT22;6277;49.824;9.562;2023-03-24T05:54:48;15.10;69.50
12426;DHT22;6277;49.824;9.562;2023-03-24T05:57:16;15.10;69.60
12426;DHT22;6277;49.824;9.562;2023-03-24T05:59:42;15.10;69.70
12426;DHT22;6277;49.824;9.562;2023-03-24T06:02:08;15.10;69.80
12426;DHT22;6277;49.824;9.562;2023-03-24T06:04:34;15.10;69.80
12426;DHT22;6277;49.824;9.562;2023-03-24T06:07:00;15.10;69.80
12426;DHT22;6277;49.824;9.562;2023-03-24T06:09:28;15.10;69.90
12426;DHT22;6277;49.824;9.562;2023-03-24T06:11:55;15.10;70.10
12426;DHT22;6277;49.824;9.562;2023-03-24T06:14:20;15.10;70.30
12426;DHT22;6277;49.824;9.562;2023-03-24T06:16:46;15.10;70.40
12426;DHT22;6277;49.824;9.562;2023-03-24T06:19:15;15.10;70.40
12426;DHT22;6277;49.824;9.562;2023-03-24T06:21:41;15.10;70.50
12426;DHT22;6277;49.824;9.562;2023-03-24T06:24:09;15.10;70.50
12426;DHT22;6277;49.824;9.562;2023-03-24T06:26:35;15.20;70.60
12426;DHT22;6277;49.824;9.562;2023-03-24T06:29:00;15.20;70.60
12426;DHT22;6277;49.824;9.562;2023-03-24T06:31:26;15.20;70.70
12426;DHT22;6277;49.824;9.562;2023-03-24T06:33:54;15.30;70.80
12426;DHT22;6277;49.824;9.562;2023-03-24T06:36:20;15.30;70.90
12426;DHT22;6277;49.824;9.562;2023-03-24T06:38:47;15.40;70.90
12426;DHT22;6277;49.824;9.562;2023-03-24T06:41:13;15.40;70.90
12426;DHT22;6277;49.824;9.562;2023-03-24T06:43:38;15.50;70.90
12426;DHT22;6277;49.824;9.562;2023-03-24T06:46:04;15.50;70.90
12426;DHT22;6277;49.824;9.562;2023-03-24T06:48:30;15.50;70.90
12426;DHT22;6277;49.824;9.562;2023-03-24T06:50:55;15.60;70.90
12426;DHT22;6277;49.824;9.562;2023-03-24T06:53:21;15.60;71.00
12426;DHT22;6277;49.824;9.562;2023-03-24T06:55:47;15.70;71.10
12426;DHT22;6277;49.824;9.562;2023-03-24T06:58:14;15.70;71.20
12426;DHT22;6277;49.824;9.562;2023-03-24T07:00:41;15.80;71.30
12426;DHT22;6277;49.824;9.562;2023-03-24T07:03:07;15.90;71.30
12426;DHT22;6277;49.824;9.562;2023-03-24T07:05:39;15.90;71.20
12426;DHT22;6277;49.824;9.562;2023-03-24T07:08:05;16.00;71.20
12426;DHT22;6277;49.824;9.562;2023-03-24T07:10:31;16.10;71.30
12426;DHT22;6277;49.824;9.562;2023-03-24T07:12:56;16.20;71.30
12426;DHT22;6277;49.824;9.562;2023-03-24T07:15:23;16.20;71.20
12426;DHT22;6277;49.824;9.562;2023-03-24T07:17:49;16.30;71.30
12426;DHT22;6277;49.824;9.562;2023-03-24T07:20:15;16.40;71.20
12426;DHT22;6277;49.824;9.562;2023-03-24T07:22:40;16.50;71.20
12426;DHT22;6277;49.824;9.562;2023-03-24T07:25:06;16.60;71.10
12426;DHT22;6277;49.824;9.562;2023-03-24T07:27:33;16.60;71.00
12426;DHT22;6277;49.824;9.562;2023-03-24T07:30:00;16.70;71.00
12426;DHT22;6277;49.824;9.562;2023-03-24T07:32:29;16.70;70.70
12426;DHT22;6277;49.824;9.562;2023-03-24T07:34:55;16.80;70.60
12426;DHT22;6277;49.824;9.562;2023-03-24T07:37:21;16.80;70.40
12426;DHT22;6277;49.824;9.562;2023-03-24T07:39:47;16.80;70.20
12426;DHT22;6277;49.824;9.562;2023-03-24T07:42:12;16.80;70.10
12426;DHT22;6277;49.824;9.562;2023-03-24T07:44:38;16.80;70.10
12426;DHT22;6277;49.824;9.562;2023-03-24T07:47:04;16.70;70.00
12426;DHT22;6277;49.824;9.562;2023-03-24T07:49:29;16.70;70.00
12426;DHT22;6277;49.824;9.562;2023-03-24T07:51:55;16.70;70.20
12426;DHT22;6277;49.824;9.562;2023-03-24T07:54:23;16.80;70.40
12426;DHT22;6277;49.824;9.562;2023-03-24T07:56:49;16.80;70.50
12426;DHT22;6277;49.824;9.562;2023-03-24T07:59:14;16.80;70.40
12426;DHT22;6277;49.824;9.562;2023-03-24T08:01:42;16.80;70.20
12426;DHT22;6277;49.824;9.562;2023-03-24T08:04:10;16.80;70.10
12426;DHT22;6277;49.824;9.562;2023-03-24T08:06:38;16.90;70.10
12426;DHT22;6277;49.824;9.562;2023-03-24T08:09:04;16.90;70.10
12426;DHT22;6277;49.824;9.562;2023-03-24T08:11:29;16.80;70.00
12426;DHT22;6277;49.824;9.562;2023-03-24T08:13:55;16.90;70.20
12426;DHT22;6277;49.824;9.562;2023-03-24T08:16:22;16.90;70.20
12426;DHT22;6277;49.824;9.562;2023-03-24T08:18:49;16.90;70.30
12426;DHT22;6277;49.824;9.562;2023-03-24T08:21:15;17.00;71.10
12426;DHT22;6277;49.824;9.562;2023-03-24T08:23:40;17.00;70.50
12426;DHT22;6277;49.824;9.562;2023-03-24T08:26:07;17.10;70.50
12426;DHT22;6277;49.824;9.562;2023-03-24T08:28:35;17.20;70.50
12426;DHT22;6277;49.824;9.562;2023-03-24T08:31:02;17.30;70.70
12426;DHT22;6277;49.824;9.562;2023-03-24T08:33:27;17.30;70.60
12426;DHT22;6277;49.824;9.562;2023-03-24T08:35:53;17.40;70.60
12426;DHT22;6277;49.824;9.562;2023-03-24T08:38:22;17.50;70.30
12426;DHT22;6277;49.824;9.562;2023-03-24T08:40:59;17.60;70.30
12426;DHT22;6277;49.824;9.562;2023-03-24T08:43:28;17.60;70.00
12426;DHT22;6277;49.824;9.562;2023-03-24T08:45:56;17.70;69.60
12426;DHT22;6277;49.824;9.562;2023-03-24T08:48:22;17.70;69.40
12426;DHT22;6277;49.824;9.562;2023-03-24T08:50:48;17.70;69.30
12426;DHT22;6277;49.824;9.562;2023-03-24T08:53:13;17.70;69.30
12426;DHT22;6277;49.824;9.562;2023-03-24T08:55:40;17.70;69.50
12426;DHT22;6277;49.824;9.562;2023-03-24T08:58:11;17.80;69.60
12426;DHT22;6277;49.824;9.562;2023-03-24T09:00:37;17.80;69.70
12426;DHT22;6277;49.824;9.562;2023-03-24T09:03:03;17.90;69.80
12426;DHT22;6277;49.824;9.562;2023-03-24T09:05:31;17.90;69.70
12426;DHT22;6277;49.824;9.562;2023-03-24T09:07:56;18.00;69.50
12426;DHT22;6277;49.824;9.562;2023-03-24T09:10:25;18.10;69.30
12426;DHT22;6277;49.824;9.562;2023-03-24T09:12:50;18.10;69.10
12426;DHT22;6277;49.824;9.562;2023-03-24T09:15:17;18.10;68.90
12426;DHT22;6277;49.824;9.562;2023-03-24T09:17:43;18.00;68.90
12426;DHT22;6277;49.824;9.562;2023-03-24T09:20:11;18.00;68.90
12426;DHT22;6277;49.824;9.562;2023-03-24T09:22:39;18.00;69.00
12426;DHT22;6277;49.824;9.562;2023-03-24T09:25:05;18.00;69.30
12426;DHT22;6277;49.824;9.562;2023-03-24T09:27:31;18.00;69.50
12426;DHT22;6277;49.824;9.562;2023-03-24T09:29:57;18.10;69.50
12426;DHT22;6277;49.824;9.562;2023-03-24T09:32:22;18.10;69.40
12426;DHT22;6277;49.824;9.562;2023-03-24T09:34:48;18.20;69.30
12426;DHT22;6277;49.824;9.562;2023-03-24T09:37:13;18.20;69.20
12426;DHT22;6277;49.824;9.562;2023-03-24T09:39:39;18.20;69.00
12426;DHT22;6277;49.824;9.562;2023-03-24T09:42:06;18.20;68.80
12426;DHT22;6277;49.824;9.562;2023-03-24T09:44:37;18.20;68.60
12426;DHT22;6277;49.824;9.562;2023-03-24T09:47:25;18.10;68.50
12426;DHT22;6277;49.824;9.562;2023-03-24T09:49:53;18.10;68.40
12426;DHT22;6277;49.824;9.562;2023-03-24T09:52:24;18.10;68.50
12426;DHT22;6277;49.824;9.562;2023-03-24T09:54:56;18.10;68.50
12426;DHT22;6277;49.824;9.562;2023-03-24T09:57:38;18.00;68.40
12426;DHT22;6277;49.824;9.562;2023-03-24T10:00:25;18.00;68.40
12426;DHT22;6277;49.824;9.562;2023-03-24T10:02:53;18.00;68.20
12426;DHT22;6277;49.824;9.562;2023-03-24T10:08:16;17.90;68.60
12426;DHT22;6277;49.824;9.562;2023-03-24T10:11:06;17.90;69.10
12426;DHT22;6277;49.824;9.562;2023-03-24T10:13:40;17.90;68.60
12426;DHT22;6277;49.824;9.562;2023-03-24T10:16:31;17.90;68.70
12426;DHT22;6277;49.824;9.562;2023-03-24T10:21:53;18.00;69.00
12426;DHT22;6277;49.824;9.562;2023-03-24T10:24:28;18.00;68.70
12426;DHT22;6277;49.824;9.562;2023-03-24T10:27:12;18.10;68.80
12426;DHT22;6277;49.824;9.562;2023-03-24T10:29:39;18.10;68.50
12426;DHT22;6277;49.824;9.562;2023-03-24T10:32:24;18.10;68.60
12426;DHT22;6277;49.824;9.562;2023-03-24T10:34:55;18.20;68.50
12426;DHT22;6277;49.824;9.562;2023-03-24T10:37:21;18.20;68.30
12426;DHT22;6277;49.824;9.562;2023-03-24T10:39:48;18.20;68.10
12426;DHT22;6277;49.824;9.562;2023-03-24T10:42:17;18.20;67.90
12426;DHT22;6277;49.824;9.562;2023-03-24T10:44:47;18.10;68.00
12426;DHT22;6277;49.824;9.562;2023-03-24T10:47:14;18.10;68.30
12426;DHT22;6277;49.824;9.562;2023-03-24T10:49:57;18.10;68.50
12426;DHT22;6277;49.824;9.562;2023-03-24T10:52:23;18.00;68.40
12426;DHT22;6277;49.824;9.562;2023-03-24T10:54:57;18.10;68.60
12426;DHT22;6277;49.824;9.562;2023-03-24T10:57:24;18.10;68.50
12426;DHT22;6277;49.824;9.562;2023-03-24T11:00:06;18.10;68.70
12426;DHT22;6277;49.824;9.562;2023-03-24T11:02:40;18.10;68.40
12426;DHT22;6277;49.824;9.562;2023-03-24T11:05:15;18.20;68.50
12426;DHT22;6277;49.824;9.562;2023-03-24T11:07:48;18.20;68.30
12426;DHT22;6277;49.824;9.562;2023-03-24T11:10:23;18.10;68.20
12426;DHT22;6277;49.824;9.562;2023-03-24T11:15:28;18.00;68.70
12426;DHT22;6277;49.824;9.562;2023-03-24T11:20:35;18.00;69.40
12426;DHT22;6277;49.824;9.562;2023-03-24T11:26:19;18.20;69.00
12426;DHT22;6277;49.824;9.562;2023-03-24T11:28:53;18.30;69.10
12426;DHT22;6277;49.824;9.562;2023-03-24T11:31:29;18.30;68.80
12426;DHT22;6277;49.824;9.562;2023-03-24T11:34:14;18.30;68.20
12426;DHT22;6277;49.824;9.562;2023-03-24T11:36:52;18.30;68.00
12426;DHT22;6277;49.824;9.562;2023-03-24T11:39:31;18.20;68.00
12426;DHT22;6277;49.824;9.562;2023-03-24T11:44:49;18.10;67.40
12426;DHT22;6277;49.824;9.562;2023-03-24T11:47:30;18.00;67.50
12426;DHT22;6277;49.824;9.562;2023-03-24T11:55:15;16.40;66.60
12426;DHT22;6277;49.824;9.562;2023-03-24T11:57:56;15.90;67.40
12426;DHT22;6277;49.824;9.562;2023-03-24T12:00:31;15.40;68.40
12426;DHT22;6277;49.824;9.562;2023-03-24T12:03:06;14.90;69.40
12426;DHT22;6277;49.824;9.562;2023-03-24T12:05:42;14.70;70.50
12426;DHT22;6277;49.824;9.562;2023-03-24T12:08:34;14.40;71.50
12426;DHT22;6277;49.824;9.562;2023-03-24T12:11:13;14.30;72.40
12426;DHT22;6277;49.824;9.562;2023-03-24T12:13:48;14.10;72.80
12426;DHT22;6277;49.824;9.562;2023-03-24T12:22:21;13.70;74.10
12426;DHT22;6277;49.824;9.562;2023-03-24T12:36:23;13.70;77.40
12426;DHT22;6277;49.824;9.562;2023-03-24T12:39:13;13.80;77.70
12426;DHT22;6277;49.824;9.562;2023-03-24T12:44:59;14.00;78.40
12426;DHT22;6277;49.824;9.562;2023-03-24T12:47:36;14.10;78.70
12426;DHT22;6277;49.824;9.562;2023-03-24T12:53:21;14.30;78.90
12426;DHT22;6277;49.824;9.562;2023-03-24T12:56:04;14.40;78.70
12426;DHT22;6277;49.824;9.562;2023-03-24T12:58:53;14.40;78.60
12426;DHT22;6277;49.824;9.562;2023-03-24T13:04:24;14.40;78.60
12426;DHT22;6277;49.824;9.562;2023-03-24T13:09:53;14.50;79.80
12426;DHT22;6277;49.824;9.562;2023-03-24T13:12:32;14.50;80.10
12426;DHT22;6277;49.824;9.562;2023-03-24T13:15:05;14.60;80.50
12426;DHT22;6277;49.824;9.562;2023-03-24T13:20:20;14.90;80.90
12426;DHT22;6277;49.824;9.562;2023-03-24T13:22:46;14.90;81.00
12426;DHT22;6277;49.824;9.562;2023-03-24T13:25:47;15.00;81.20
12426;DHT22;6277;49.824;9.562;2023-03-24T13:28:21;15.20;81.30
12426;DHT22;6277;49.824;9.562;2023-03-24T13:30:48;15.20;81.10
12426;DHT22;6277;49.824;9.562;2023-03-24T13:33:24;15.30;81.20
12426;DHT22;6277;49.824;9.562;2023-03-24T13:38:32;15.40;81.40
12426;DHT22;6277;49.824;9.562;2023-03-24T13:41:03;15.50;81.60
12426;DHT22;6277;49.824;9.562;2023-03-24T13:43:30;15.50;81.60
12426;DHT22;6277;49.824;9.562;2023-03-24T13:45:59;15.50;81.80
12426;DHT22;6277;49.824;9.562;2023-03-24T13:48:37;15.60;82.00
12426;DHT22;6277;49.824;9.562;2023-03-24T13:53:49;15.80;82.80
12426;DHT22;6277;49.824;9.562;2023-03-24T13:56:25;15.90;83.30
12426;DHT22;6277;49.824;9.562;2023-03-24T14:01:32;16.20;83.00
12426;DHT22;6277;49.824;9.562;2023-03-24T14:04:26;16.20;82.90
12426;DHT22;6277;49.824;9.562;2023-03-24T14:06:54;16.30;83.20
12426;DHT22;6277;49.824;9.562;2023-03-24T14:09:25;16.40;84.00
12426;DHT22;6277;49.824;9.562;2023-03-24T14:14:25;16.60;84.00
12426;DHT22;6277;49.824;9.562;2023-03-24T14:19:37;16.80;83.50
12426;DHT22;6277;49.824;9.562;2023-03-24T14:22:21;16.90;83.00
12426;DHT22;6277;49.824;9.562;2023-03-24T14:25:04;16.90;82.60
12426;DHT22;6277;49.824;9.562;2023-03-24T14:27:49;16.90;82.50
12426;DHT22;6277;49.824;9.562;2023-03-24T14:30:20;16.80;82.40
12426;DHT22;6277;49.824;9.562;2023-03-24T14:32:52;16.80;82.70
12426;DHT22;6277;49.824;9.562;2023-03-24T14:35:33;16.80;82.90
12426;DHT22;6277;49.824;9.562;2023-03-24T14:38:04;16.80;83.10
12426;DHT22;6277;49.824;9.562;2023-03-24T14:40:34;16.80;82.90
12426;DHT22;6277;49.824;9.562;2023-03-24T14:43:11;16.70;82.80
12426;DHT22;6277;49.824;9.562;2023-03-24T14:45:55;16.70;82.60
12426;DHT22;6277;49.824;9.562;2023-03-24T14:53:41;16.70;83.60
12426;DHT22;6277;49.824;9.562;2023-03-24T14:56:12;16.70;83.90
12426;DHT22;6277;49.824;9.562;2023-03-24T14:58:39;16.80;84.00
12426;DHT22;6277;49.824;9.562;2023-03-24T15:01:08;16.80;84.00
12426;DHT22;6277;49.824;9.562;2023-03-24T15:03:58;16.90;84.10
12426;DHT22;6277;49.824;9.562;2023-03-24T15:06:24;16.90;84.50
12426;DHT22;6277;49.824;9.562;2023-03-24T15:08:52;17.00;84.50
12426;DHT22;6277;49.824;9.562;2023-03-24T15:11:21;17.00;84.50
12426;DHT22;6277;49.824;9.562;2023-03-24T15:13:50;17.10;84.50
12426;DHT22;6277;49.824;9.562;2023-03-24T15:16:22;17.10;84.90
12426;DHT22;6277;49.824;9.562;2023-03-24T15:21:38;17.30;86.10
12426;DHT22;6277;49.824;9.562;2023-03-24T15:24:25;17.50;86.10
12426;DHT22;6277;49.824;9.562;2023-03-24T15:26:54;17.60;85.40
12426;DHT22;6277;49.824;9.562;2023-03-24T15:29:20;17.60;84.60
12426;DHT22;6277;49.824;9.562;2023-03-24T15:31:46;17.60;83.90
12426;DHT22;6277;49.824;9.562;2023-03-24T15:37:02;17.60;83.20
12426;DHT22;6277;49.824;9.562;2023-03-24T15:39:38;17.60;83.70
12426;DHT22;6277;49.824;9.562;2023-03-24T15:42:14;17.50;83.40
12426;DHT22;6277;49.824;9.562;2023-03-24T15:44:41;17.50;83.40
12426;DHT22;6277;49.824;9.562;2023-03-24T15:47:28;17.50;84.00
12426;DHT22;6277;49.824;9.562;2023-03-24T15:49:58;17.50;83.50
12426;DHT22;6277;49.824;9.562;2023-03-24T15:57:41;17.40;83.10
12426;DHT22;6277;49.824;9.562;2023-03-24T16:00:18;17.40;83.70
12426;DHT22;6277;49.824;9.562;2023-03-24T16:02:53;17.40;83.00
12426;DHT22;6277;49.824;9.562;2023-03-24T16:05:22;17.30;84.10
12426;DHT22;6277;49.824;9.562;2023-03-24T16:08:05;17.40;85.60
12426;DHT22;6277;49.824;9.562;2023-03-24T16:13:23;17.70;86.40
12426;DHT22;6277;49.824;9.562;2023-03-24T16:16:05;17.90;88.70
12426;DHT22;6277;49.824;9.562;2023-03-24T16:18:37;18.30;88.10
12426;DHT22;6277;49.824;9.562;2023-03-24T16:21:12;18.50;89.90
12426;DHT22;6277;49.824;9.562;2023-03-24T16:23:38;18.90;89.00
12426;DHT22;6277;49.824;9.562;2023-03-24T16:26:04;19.20;90.00
12426;DHT22;6277;49.824;9.562;2023-03-24T16:28:30;19.50;89.90
12426;DHT22;6277;49.824;9.562;2023-03-24T16:31:00;19.80;89.60
12426;DHT22;6277;49.824;9.562;2023-03-24T16:33:26;20.10;88.70
12426;DHT22;6277;49.824;9.562;2023-03-24T16:35:52;20.30;88.70
12426;DHT22;6277;49.824;9.562;2023-03-24T16:38:18;20.50;88.10
12426;DHT22;6277;49.824;9.562;2023-03-24T16:40:47;20.70;87.50
12426;DHT22;6277;49.824;9.562;2023-03-24T16:43:13;20.90;85.80
12426;DHT22;6277;49.824;9.562;2023-03-24T16:45:40;20.90;84.20
12426;DHT22;6277;49.824;9.562;2023-03-24T16:48:05;20.80;82.80
12426;DHT22;6277;49.824;9.562;2023-03-24T16:50:35;20.70;81.40
12426;DHT22;6277;49.824;9.562;2023-03-24T16:53:01;20.50;80.00
12426;DHT22;6277;49.824;9.562;2023-03-24T16:55:29;20.20;79.50
12426;DHT22;6277;49.824;9.562;2023-03-24T16:57:55;20.00;79.00
12426;DHT22;6277;49.824;9.562;2023-03-24T17:00:21;19.70;80.00
12426;DHT22;6277;49.824;9.562;2023-03-24T17:02:47;19.40;80.00
12426;DHT22;6277;49.824;9.562;2023-03-24T17:05:23;19.10;80.20
12426;DHT22;6277;49.824;9.562;2023-03-24T17:07:51;18.90;79.80
12426;DHT22;6277;49.824;9.562;2023-03-24T17:10:17;18.60;79.90
12426;DHT22;6277;49.824;9.562;2023-03-24T17:12:43;18.40;79.90
12426;DHT22;6277;49.824;9.562;2023-03-24T17:15:26;18.20;80.00
12426;DHT22;6277;49.824;9.562;2023-03-24T17:17:52;17.90;79.80
12426;DHT22;6277;49.824;9.562;2023-03-24T17:20:18;17.70;80.10
12426;DHT22;6277;49.824;9.562;2023-03-24T17:22:46;17.40;80.10
12426;DHT22;6277;49.824;9.562;2023-03-24T17:25:14;17.20;80.20
12426;DHT22;6277;49.824;9.562;2023-03-24T17:27:40;17.00;80.40
12426;DHT22;6277;49.824;9.562;2023-03-24T17:30:07;16.80;80.50
12426;DHT22;6277;49.824;9.562;2023-03-24T17:32:33;16.60;80.70
12426;DHT22;6277;49.824;9.562;2023-03-24T17:35:00;16.40;80.90
12426;DHT22;6277;49.824;9.562;2023-03-24T17:37:27;16.20;81.10
12426;DHT22;6277;49.824;9.562;2023-03-24T17:39:53;16.10;81.40
12426;DHT22;6277;49.824;9.562;2023-03-24T17:42:24;15.90;81.60
12426;DHT22;6277;49.824;9.562;2023-03-24T17:44:50;15.70;81.80
12426;DHT22;6277;49.824;9.562;2023-03-24T17:47:16;15.60;82.00
12426;DHT22;6277;49.824;9.562;2023-03-24T17:49:42;15.40;82.10
12426;DHT22;6277;49.824;9.562;2023-03-24T17:52:07;15.30;82.30
12426;DHT22;6277;49.824;9.562;2023-03-24T17:54:33;15.20;82.40
12426;DHT22;6277;49.824;9.562;2023-03-24T17:56:58;15.10;82.60
12426;DHT22;6277;49.824;9.562;2023-03-24T17:59:24;15.00;82.90
12426;DHT22;6277;49.824;9.562;2023-03-24T18:01:50;14.90;83.40
12426;DHT22;6277;49.824;9.562;2023-03-24T18:04:15;14.80;83.70
12426;DHT22;6277;49.824;9.562;2023-03-24T18:06:42;14.70;84.00